Time;durP1;ratioP1;P1;durP2;ratioP2;P2;SDS_P1;SDS_P2;PMS_P1;PMS_P2;Temp;Humidity;BMP_temperature;BMP_pressure;BME280_temperature;BME280_humidity;BME280_pressure;Samples;Min_cycle;Max_cycle;Signal;HPM_P1;HPM_P2
2021/07/21 00:00:13;;;;;;;13.95;12.00;;;12.50;1.40;;;14.18;100.00;95763.89;646805;212;31736;-70
2021/07/21 00:02:55;;;;;;;16.05;11.55;;;12.40;1.40;;;14.13;100.00;95756.50;647045;212;31871;-70
2021/07/21 00:05:39;;;;;;;13.68;11.48;;;12.40;1.40;;;14.03;100.00;95760.70;645898;212;42437;-70
2021/07/21 00:08:21;;;;;;;15.83;11.90;;;12.30;1.40;;;14.05;100.00;95760.33;645846;212;31679;-70
2021/07/21 00:13:50;;;;;;;15.75;11.88;;;12.30;1.40;;;13.95;100.00;95758.11;645567;216;31588;-70
2021/07/21 00:16:36;;;;;;;18.30;12.57;;;12.30;1.40;;;13.97;100.00;95755.45;643894;212;31643;-70
2021/07/21 00:22:01;;;;;;;14.67;11.93;;;12.20;1.40;;;13.99;100.00;95752.76;618931;226;31975;-70
2021/07/21 00:24:46;;;;;;;14.32;12.82;;;12.20;1.40;;;13.93;100.00;95752.42;622442;222;31952;-71
2021/07/21 00:27:28;;;;;;;15.50;11.80;;;12.20;1.40;;;13.86;100.00;95752.84;644403;216;31631;-70
2021/07/21 00:30:11;;;;;;;15.90;12.40;;;12.10;1.40;;;13.84;100.00;95752.05;646894;212;31622;-70
2021/07/21 00:32:53;;;;;;;15.80;13.10;;;12.10;1.40;;;13.78;100.00;95750.73;648112;212;31792;-70
2021/07/21 00:35:51;;;;;;;13.80;12.30;;;12.00;1.40;;;13.69;100.00;95751.95;646711;212;31640;-70
2021/07/21 00:38:33;;;;;;;14.70;12.60;;;12.00;1.40;;;13.70;100.00;95752.86;649018;216;32200;-70
2021/07/21 00:41:14;;;;;;;14.50;11.90;;;11.90;1.40;;;13.68;100.00;95759.02;645138;212;32239;-70
2021/07/21 00:43:59;;;;;;;15.32;12.95;;;11.80;1.40;;;13.68;100.00;95753.58;647391;212;31637;-70
2021/07/21 00:46:41;;;;;;;13.43;12.00;;;11.80;1.40;;;13.65;100.00;95757.15;649390;216;31599;-70
2021/07/21 00:49:27;;;;;;;14.45;12.90;;;11.80;1.40;;;13.59;100.00;95752.42;646716;216;42359;-70
2021/07/21 00:52:09;;;;;;;14.03;11.83;;;11.80;1.40;;;13.54;100.00;95752.97;647825;216;31648;-70
2021/07/21 00:54:54;;;;;;;12.68;11.45;;;11.90;1.40;;;13.59;100.00;95751.09;645991;216;32195;-70
2021/07/21 00:57:35;;;;;;;13.87;12.20;;;12.00;1.40;;;13.48;100.00;95752.33;650924;212;31631;-70
2021/07/21 01:00:17;;;;;;;15.50;12.20;;;11.80;1.40;;;13.42;100.00;95747.20;647989;212;31667;-70
2021/07/21 01:02:59;;;;;;;13.67;12.13;;;11.90;1.40;;;13.42;100.00;95748.08;645358;216;32333;-70
2021/07/21 01:05:42;;;;;;;13.37;11.90;;;11.80;1.40;;;13.41;100.00;95746.41;646806;216;32294;-70
2021/07/21 01:08:24;;;;;;;14.75;12.20;;;11.80;1.40;;;13.42;100.00;95744.05;616291;229;42304;-70
2021/07/21 01:11:23;;;;;;;13.00;11.33;;;11.80;1.40;;;13.41;100.00;95748.59;647315;216;31962;-70
2021/07/21 01:14:06;;;;;;;13.10;11.70;;;11.70;1.40;;;13.34;100.00;95749.13;646396;212;32235;-71
2021/07/21 01:16:49;;;;;;;14.73;12.37;;;11.70;1.40;;;13.32;100.00;95747.82;648734;216;31631;-71
2021/07/21 01:20:12;;;;;;;14.30;11.87;;;11.70;1.40;;;13.34;100.00;95750.72;648733;216;31641;-70
2021/07/21 01:23:23;;;;;;;15.30;11.77;;;11.60;1.40;;;13.31;100.00;95748.52;648344;212;31649;-71
2021/07/21 01:26:05;;;;;;;14.00;12.33;;;11.50;1.40;;;13.22;100.00;95747.58;643155;212;31660;-71
2021/07/21 01:28:46;;;;;;;14.80;12.53;;;11.50;1.40;;;13.23;100.00;95744.88;645947;216;31636;-70
2021/07/21 01:31:37;;;;;;;15.70;12.60;;;11.50;1.40;;;13.19;100.00;95746.58;646910;212;43124;-70
2021/07/21 01:35:57;;;;;;;15.40;12.57;;;11.50;1.40;;;13.17;100.00;95741.72;648727;216;32236;-69
2021/07/21 01:38:38;;;;;;;13.03;11.63;;;11.50;1.40;;;13.28;100.00;95745.55;646204;216;31670;-70
2021/07/21 01:41:21;;;;;;;13.37;11.57;;;11.40;1.40;;;13.21;100.00;95742.53;635112;216;42444;-70
2021/07/21 01:46:37;;;;;;;15.10;12.50;;;11.40;1.40;;;13.14;100.00;95744.23;645069;212;31602;-70
2021/07/21 01:49:19;;;;;;;13.80;11.47;;;11.40;1.40;;;13.09;100.00;95743.88;646069;212;31621;-70
2021/07/21 01:52:02;;;;;;;12.50;11.20;;;11.30;1.40;;;13.04;100.00;95742.70;647593;216;44030;-70
2021/07/21 01:54:44;;;;;;;13.60;11.27;;;11.30;1.40;;;12.98;100.00;95743.50;646096;216;31829;-70
2021/07/21 01:57:26;;;;;;;14.13;11.70;;;11.30;1.40;;;13.00;100.00;95743.94;646733;216;31716;-71
2021/07/21 02:00:08;;;;;;;13.87;11.30;;;11.40;1.40;;;12.97;100.00;95735.94;646795;212;42379;-70
2021/07/21 02:02:51;;;;;;;16.63;13.30;;;11.30;1.40;;;12.94;100.00;95737.67;649580;212;31764;-70
2021/07/21 02:05:33;;;;;;;12.82;11.40;;;11.20;1.40;;;12.98;100.00;95733.85;647433;216;31647;-70
2021/07/21 02:08:15;;;;;;;16.33;11.57;;;11.20;1.40;;;12.95;100.00;95732.91;646320;212;31669;-70
2021/07/21 02:10:59;;;;;;;14.30;12.13;;;11.20;1.40;;;12.88;100.00;95728.41;647190;212;31896;-70
2021/07/21 02:13:41;;;;;;;12.95;11.55;;;11.20;1.40;;;12.87;100.00;95728.97;643842;216;31655;-70
2021/07/21 02:16:23;;;;;;;13.80;12.32;;;11.10;1.40;;;12.81;100.00;95726.22;645702;216;31616;-70
2021/07/21 02:19:08;;;;;;;14.20;11.90;;;11.00;1.40;;;12.75;100.00;95726.98;644646;212;31635;-70
2021/07/21 02:21:49;;;;;;;16.02;12.32;;;11.00;1.40;;;12.73;100.00;95727.25;649604;216;31620;-71
2021/07/21 02:24:31;;;;;;;13.30;11.77;;;11.00;1.40;;;12.72;100.00;95728.78;647648;216;42257;-70
2021/07/21 02:27:16;;;;;;;14.17;11.50;;;11.00;1.40;;;12.76;100.00;95731.70;645994;212;43182;-70
2021/07/21 02:29:57;;;;;;;12.87;10.70;;;10.90;1.40;;;12.75;100.00;95733.39;645790;212;32505;-71
2021/07/21 02:35:51;;;;;;;13.88;12.15;;;10.90;1.40;;;12.64;100.00;95731.33;621007;226;32698;-71
2021/07/21 02:38:32;;;;;;;14.50;11.87;;;10.90;1.40;;;12.68;100.00;95734.29;647713;212;33652;-71
2021/07/21 02:41:14;;;;;;;14.00;11.70;;;11.00;1.40;;;12.67;100.00;95732.35;638028;212;31794;-70
2021/07/21 02:43:59;;;;;;;13.37;12.03;;;11.10;1.40;;;12.65;100.00;95737.02;644107;216;38048;-70
2021/07/21 02:48:23;;;;;;;13.05;11.65;;;11.10;1.40;;;12.63;100.00;95729.64;645147;216;42247;-71
2021/07/21 02:51:06;;;;;;;13.60;11.50;;;11.10;1.40;;;12.65;100.00;95723.92;648457;212;31816;-70
2021/07/21 02:53:51;;;;;;;14.07;11.60;;;11.20;1.40;;;12.66;100.00;95730.31;650230;216;32065;-71
2021/07/21 02:56:32;;;;;;;15.60;11.90;;;11.20;1.40;;;12.59;100.00;95734.05;647321;216;42651;-70
2021/07/21 02:59:14;;;;;;;12.40;11.00;;;11.10;1.40;;;12.68;100.00;95741.08;646105;212;32068;-70
2021/07/21 03:01:56;;;;;;;13.10;11.57;;;11.10;1.40;;;12.61;100.00;95737.11;645885;216;42391;-71
2021/07/21 03:04:37;;;;;;;12.47;11.17;;;11.10;1.40;;;12.59;100.00;95739.77;634168;218;31734;-70
2021/07/21 03:07:19;;;;;;;14.80;11.70;;;11.00;1.40;;;12.56;100.00;95735.88;647983;216;31636;-71
2021/07/21 03:10:00;;;;;;;16.00;12.27;;;11.00;1.40;;;12.53;100.00;95743.13;645974;212;31641;-71
2021/07/21 03:15:20;;;;;;;16.50;13.50;;;10.90;1.40;;;12.45;100.00;95750.58;645651;216;32232;-70
2021/07/21 03:18:01;;;;;;;13.90;12.45;;;10.90;1.40;;;12.43;100.00;95746.66;624095;222;32060;-73
2021/07/21 03:20:43;;;;;;;13.97;12.00;;;11.00;1.40;;;12.48;100.00;95746.67;645090;216;31632;-71
2021/07/21 03:23:24;;;;;;;13.90;11.67;;;11.10;1.40;;;12.43;100.00;95749.16;645807;216;31626;-70
2021/07/21 03:26:09;;;;;;;12.10;10.80;;;11.10;1.40;;;12.43;100.00;95751.22;641252;220;34533;-71
2021/07/21 03:28:51;;;;;;;13.37;11.97;;;11.10;1.40;;;12.45;100.00;95746.77;645331;212;42265;-70
2021/07/21 03:31:32;;;;;;;13.30;11.90;;;11.00;1.40;;;12.42;100.00;95752.01;645880;212;32047;-70
2021/07/21 03:35:52;;;;;;;15.38;12.20;;;10.80;1.40;;;12.35;100.00;95761.31;617546;222;32023;-69
2021/07/21 03:38:33;;;;;;;13.43;12.02;;;10.70;1.40;;;12.34;100.00;95760.74;645835;212;31652;-69
2021/07/21 03:43:49;;;;;;;16.40;12.73;;;10.70;1.40;;;12.33;100.00;95756.91;644747;213;42464;-70
2021/07/21 03:46:31;;;;;;;14.45;12.90;;;10.60;1.40;;;12.29;100.00;95759.50;647700;212;31611;-69
2021/07/21 03:49:13;;;;;;;12.70;11.20;;;10.50;1.40;;;12.27;100.00;95759.86;652460;216;31647;-70
2021/07/21 03:51:54;;;;;;;13.80;12.30;;;10.50;1.40;;;12.28;100.00;95761.75;647209;216;31729;-70
2021/07/21 03:54:39;;;;;;;13.07;11.30;;;10.60;1.40;;;12.36;100.00;95767.66;646817;216;31627;-70
2021/07/21 03:57:21;;;;;;;12.60;10.40;;;10.50;1.40;;;12.30;100.00;95769.36;646346;216;31717;-70
2021/07/21 04:00:02;;;;;;;13.53;10.67;;;10.40;1.40;;;12.16;100.00;95770.27;648520;216;31737;-70
2021/07/21 04:02:45;;;;;;;11.93;10.40;;;10.30;1.40;;;12.09;100.00;95767.59;644761;212;32176;-71
2021/07/21 04:05:26;;;;;;;15.20;10.90;;;10.30;1.40;;;12.07;100.00;95772.11;645747;216;31623;-71
2021/07/21 04:08:07;;;;;;;13.97;11.20;;;10.30;1.40;;;12.20;100.00;95774.80;649729;216;31627;-70
2021/07/21 04:10:51;;;;;;;13.03;11.03;;;10.30;1.40;;;12.18;100.00;95768.87;649726;212;31657;-70
2021/07/21 04:13:32;;;;;;;14.10;11.60;;;10.40;1.40;;;12.14;100.00;95769.05;650600;216;31620;-70
2021/07/21 04:16:14;;;;;;;14.07;11.00;;;10.50;1.40;;;12.18;100.00;95765.87;647489;216;31633;-70
2021/07/21 04:18:56;;;;;;;15.23;10.60;;;10.50;1.40;;;12.25;100.00;95767.99;647070;212;31777;-70
2021/07/21 04:21:40;;;;;;;14.85;10.93;;;10.50;1.40;;;12.27;100.00;95768.13;647909;216;31629;-70
2021/07/21 04:24:22;;;;;;;12.15;10.60;;;10.60;1.40;;;12.39;100.00;95773.62;646176;216;42910;-71
2021/07/21 04:29:38;;;;;;;13.23;10.80;;;10.80;1.40;;;12.40;100.00;95779.95;649011;216;31655;-70
2021/07/21 04:32:21;;;;;;;12.17;10.53;;;10.90;1.40;;;12.56;100.00;95780.26;646980;212;31684;-71
2021/07/21 04:35:51;;;;;;;13.98;11.07;;;11.00;1.40;;;12.70;100.00;95781.08;649464;216;31710;-70
2021/07/21 04:38:33;;;;;;;13.13;10.83;;;11.10;1.40;;;12.78;100.00;95782.61;645024;216;32233;-70
2021/07/21 04:41:14;;;;;;;13.50;10.77;;;11.10;1.40;;;12.93;100.00;95784.13;645340;216;31689;-71
2021/07/21 04:43:56;;;;;;;14.27;11.18;;;11.20;1.40;;;13.00;100.00;95789.83;647280;212;31736;-71
2021/07/21 04:46:42;;;;;;;13.80;11.10;;;11.20;1.40;;;13.11;100.00;95783.25;648539;216;31656;-71
2021/07/21 04:49:26;;;;;;;13.03;11.27;;;11.40;1.40;;;13.19;100.00;95786.21;646302;216;32295;-71
2021/07/21 04:52:07;;;;;;;15.03;11.40;;;11.50;1.40;;;13.32;100.00;95788.34;620880;226;32994;-70
2021/07/21 04:56:49;;;;;;;13.57;11.40;;;11.70;1.40;;;13.41;100.00;95790.52;616559;222;32232;-71
2021/07/21 04:59:34;;;;;;;13.23;11.50;;;11.80;1.40;;;13.44;100.00;95795.69;646539;216;42749;-72
2021/07/21 05:02:17;;;;;;;15.73;11.30;;;12.00;1.40;;;13.48;100.00;95794.14;619626;222;31990;-70
2021/07/21 05:04:58;;;;;;;13.63;11.50;;;12.10;1.40;;;13.65;100.00;95795.29;646042;212;31974;-71
2021/07/21 05:10:14;;;;;;;12.85;11.02;;;12.40;1.40;;;14.15;100.00;95803.02;647114;216;42215;-70
2021/07/21 05:12:55;;;;;;;13.40;11.37;;;12.50;1.40;;;14.26;100.00;95811.41;646844;212;31644;-70
2021/07/21 05:15:37;;;;;;;12.70;11.10;;;12.50;1.40;;;14.39;100.00;95805.08;646062;212;31633;-70
2021/07/21 05:18:19;;;;;;;12.97;11.07;;;12.60;1.40;;;14.49;100.00;95807.42;646171;212;35349;-70
2021/07/21 05:21:00;;;;;;;14.57;11.90;;;12.70;1.40;;;14.63;100.00;95817.00;647308;216;31741;-71
2021/07/21 05:23:42;;;;;;;12.48;10.73;;;12.80;1.40;;;14.79;100.00;95813.97;644706;212;32044;-71
2021/07/21 05:26:24;;;;;;;15.00;11.30;;;13.00;1.40;;;14.89;100.00;95814.53;646048;216;31629;-70
2021/07/21 05:29:06;;;;;;;13.60;12.02;;;13.10;1.40;;;15.00;100.00;95812.56;646541;212;42519;-70
2021/07/21 05:31:47;;;;;;;13.60;11.00;;;13.20;1.40;;;15.17;100.00;95816.45;649038;216;42239;-70
2021/07/21 05:35:54;;;;;;;13.07;11.25;;;13.40;1.40;;;15.23;100.00;95812.48;644169;212;33502;-71
2021/07/21 05:38:36;;;;;;;13.55;11.07;;;13.60;1.40;;;15.50;100.00;95821.82;618210;226;32056;-70
2021/07/21 05:41:18;;;;;;;15.95;12.07;;;13.70;1.40;;;15.67;100.00;95815.38;635486;212;42725;-70
2021/07/21 05:44:00;;;;;;;13.20;11.43;;;13.80;1.40;;;15.82;100.00;95816.94;646235;216;31629;-70
2021/07/21 05:46:41;;;;;;;12.63;11.27;;;13.90;1.40;;;15.95;100.00;95820.73;645667;212;33866;-70
2021/07/21 05:49:25;;;;;;;13.05;11.65;;;14.00;1.40;;;16.05;100.00;95823.72;645836;212;31648;-70
2021/07/21 05:52:08;;;;;;;14.10;12.00;;;14.20;1.40;;;16.24;100.00;95823.80;647369;212;31679;-71
2021/07/21 05:54:50;;;;;;;13.93;11.75;;;14.30;1.40;;;16.37;100.00;95827.28;647873;216;36146;-70
2021/07/21 05:57:31;;;;;;;14.18;12.60;;;14.40;1.40;;;16.50;100.00;95829.53;645602;212;31617;-70
2021/07/21 06:00:13;;;;;;;15.10;13.00;;;14.60;1.40;;;16.47;100.00;95832.44;647619;212;31665;-71
2021/07/21 06:02:55;;;;;;;15.23;12.82;;;14.70;1.40;;;16.63;100.00;95835.42;646197;216;31591;-70
2021/07/21 06:05:38;;;;;;;15.27;13.18;;;14.80;1.40;;;16.74;100.00;95839.89;644214;216;40410;-72
2021/07/21 06:08:19;;;;;;;18.37;13.32;;;14.90;1.40;;;16.87;100.00;95838.06;647083;216;32167;-70
2021/07/21 06:11:01;;;;;;;14.68;12.70;;;15.00;1.40;;;16.94;100.00;95838.02;648236;216;31615;-71
2021/07/21 06:13:43;;;;;;;15.32;13.73;;;15.00;1.40;;;17.11;100.00;95835.65;647371;212;31707;-70
2021/07/21 06:16:24;;;;;;;15.13;13.38;;;15.20;1.40;;;17.28;100.00;95839.18;646916;212;42846;-70
2021/07/21 06:19:06;;;;;;;15.73;13.55;;;15.30;1.40;;;17.35;100.00;95842.72;646652;216;31647;-71
2021/07/21 06:24:22;;;;;;;15.43;13.77;;;15.60;1.40;;;17.50;100.00;95848.26;645860;216;31616;-70
2021/07/21 06:27:10;;;;;;;17.55;14.00;;;15.60;1.40;;;17.56;100.00;95851.91;647774;216;31630;-71
2021/07/21 06:29:58;;;;;;;14.80;13.27;;;15.70;1.40;;;17.69;100.00;95859.67;648657;216;31629;-70
2021/07/21 06:32:39;;;;;;;18.60;13.45;;;15.70;1.40;;;17.82;100.00;95858.58;646473;216;31615;-71
2021/07/21 06:35:50;;;;;;;17.40;13.62;;;16.00;1.40;;;17.88;100.00;95863.02;647703;216;31652;-70
2021/07/21 06:38:32;;;;;;;14.98;13.43;;;16.10;1.40;;;17.98;100.00;95860.08;645283;212;31597;-70
2021/07/21 06:41:14;;;;;;;15.23;13.38;;;16.20;1.40;;;18.12;100.00;95860.28;611740;222;32100;-71
2021/07/21 06:43:59;;;;;;;15.38;13.77;;;16.40;1.40;;;18.30;99.56;95857.63;622547;222;32146;-71
2021/07/21 06:46:37;;;;;;;15.52;13.93;;;16.60;1.40;;;18.51;98.73;95863.05;646221;212;31614;-70
2021/07/21 06:49:19;;;;;;;17.67;13.80;;;16.60;1.40;;;18.69;98.38;95866.70;647922;216;32037;-70
2021/07/21 06:52:00;;;;;;;15.63;13.93;;;16.80;1.40;;;18.71;97.06;95867.58;645726;213;31826;-70
2021/07/21 06:54:42;;;;;;;17.17;14.27;;;16.90;1.40;;;18.96;95.79;95868.02;644769;212;32860;-71
2021/07/21 06:57:24;;;;;;;16.60;14.80;;;17.10;1.40;;;19.28;95.07;95868.95;646045;212;31979;-70
2021/07/21 07:00:09;;;;;;;17.55;14.25;;;17.20;1.40;;;19.32;94.11;95867.06;645858;212;31601;-70
2021/07/21 07:02:51;;;;;;;18.12;14.68;;;17.30;1.40;;;19.23;93.41;95871.06;647406;212;31590;-71
2021/07/21 07:07:34;;;;;;;18.85;13.68;;;17.50;1.40;;;19.44;92.77;95875.52;647037;216;31646;-71
2021/07/21 07:10:18;;;;;;;14.95;13.30;;;17.60;1.40;;;19.52;92.24;95880.95;644579;212;31598;-70
2021/07/21 07:12:58;;;;;;;15.07;13.45;;;17.70;1.40;;;19.71;91.33;95884.33;646606;216;31618;-70
2021/07/21 07:15:39;;;;;;;14.70;12.55;;;17.90;1.40;;;19.93;90.14;95885.99;646480;216;42621;-70
2021/07/21 07:18:24;;;;;;;13.75;12.25;;;18.10;1.40;;;20.17;90.44;95883.59;646076;212;33181;-71
2021/07/21 07:21:06;;;;;;;13.35;11.93;;;18.40;1.40;;;20.31;86.83;95886.28;648123;216;31652;-70
2021/07/21 07:23:50;;;;;;;14.50;12.20;;;18.60;1.40;;;20.54;87.81;95884.61;647991;212;31604;-71
2021/07/21 07:26:29;;;;;;;16.40;12.75;;;18.70;1.40;;;20.76;85.44;95886.08;648155;212;31622;-71
2021/07/21 07:29:11;;;;;;;14.85;12.63;;;18.90;1.40;;;20.97;84.84;95882.36;647654;212;31602;-70
2021/07/21 07:31:53;;;;;;;14.32;12.90;;;19.10;1.40;;;21.22;84.77;95880.45;646306;216;31619;-70
2021/07/21 07:35:51;;;;;;;12.52;11.23;;;19.20;1.40;;;21.36;83.56;95873.58;650178;216;31640;-71
2021/07/21 07:38:35;;;;;;;14.90;11.80;;;19.40;1.40;;;21.63;79.95;95872.61;648263;212;32233;-70
2021/07/21 07:41:20;;;;;;;13.18;11.77;;;19.70;1.40;;;21.56;79.48;95872.83;634553;212;31879;-71
2021/07/21 07:43:59;;;;;;;15.43;11.73;;;19.90;1.40;;;21.93;81.57;95870.63;645699;213;31919;-70
2021/07/21 07:46:40;;;;;;;13.30;12.00;;;20.10;1.40;;;22.17;78.82;95866.55;646001;216;31673;-72
2021/07/21 07:49:22;;;;;;;14.82;12.05;;;20.10;1.40;;;22.29;76.75;95867.54;648308;212;42246;-72
2021/07/21 07:52:07;;;;;;;14.20;10.98;;;20.30;1.40;;;22.26;77.15;95868.14;645247;213;31601;-71
2021/07/21 07:54:49;;;;;;;15.68;11.57;;;20.40;1.40;;;22.46;77.32;95868.39;649148;216;31933;-71
2021/07/21 07:57:30;;;;;;;12.90;11.30;;;20.30;1.40;;;22.56;76.60;95864.28;646210;216;42237;-71
2021/07/21 08:00:13;;;;;;;15.88;12.07;;;20.60;1.40;;;22.66;73.55;95871.28;648099;216;31607;-71
2021/07/21 08:02:54;;;;;;;15.15;12.90;;;20.80;1.40;;;22.40;70.14;95868.07;644886;216;42782;-71
2021/07/21 08:05:36;;;;;;;16.37;11.82;;;20.70;1.40;;;22.59;70.79;95863.42;645234;212;31827;-70
2021/07/21 08:08:18;;;;;;;14.65;11.85;;;20.70;1.40;;;22.89;71.24;95857.19;646679;212;32001;-71
2021/07/21 08:11:03;;;;;;;12.83;11.43;;;20.80;1.40;;;23.12;72.64;95861.84;647639;212;42238;-71
2021/07/21 08:13:45;;;;;;;11.20;9.70;;;21.10;1.40;;;22.72;68.34;95868.03;647378;212;31610;-71
2021/07/21 08:16:27;;;;;;;11.45;10.35;;;21.00;1.40;;;22.82;66.75;95862.03;618877;226;31932;-70
2021/07/21 08:19:08;;;;;;;12.15;10.68;;;21.10;1.40;;;23.14;68.78;95860.78;646452;216;31587;-70
2021/07/21 08:21:50;;;;;;;13.90;10.50;;;21.30;1.40;;;22.99;67.97;95864.14;646564;216;31610;-70
2021/07/21 08:24:32;;;;;;;12.93;10.47;;;21.60;1.40;;;23.39;64.02;95865.84;646381;212;31800;-71
2021/07/21 08:27:13;;;;;;;10.43;9.43;;;21.80;1.40;;;24.01;62.49;95867.39;646892;216;31940;-71
2021/07/21 08:29:55;;;;;;;13.57;12.17;;;22.20;1.40;;;23.80;67.09;95866.57;645667;212;31714;-71
2021/07/21 08:32:37;;;;;;;14.02;11.23;;;22.20;1.40;;;24.37;65.88;95867.63;650179;212;31635;-71
2021/07/21 08:35:51;;;;;;;11.60;10.40;;;22.40;1.40;;;24.06;60.23;95871.11;645670;216;31977;-70
2021/07/21 08:38:33;;;;;;;12.07;10.75;;;22.40;1.40;;;24.47;65.60;95863.30;645982;212;31619;-71
2021/07/21 08:41:15;;;;;;;12.98;10.80;;;22.50;1.40;;;24.59;59.75;95864.63;637449;216;31908;-71
2021/07/21 08:43:57;;;;;;;11.05;9.95;;;22.40;1.40;;;24.43;60.94;95870.94;645447;212;31796;-71
2021/07/21 08:46:40;;;;;;;18.52;15.05;;;22.50;1.40;;;23.70;59.06;95870.86;650000;216;31621;-71
2021/07/21 08:49:20;;;;;;;13.05;11.12;;;22.30;1.40;;;24.59;64.03;95868.80;646762;216;31679;-71
2021/07/21 08:52:07;;;;;;;11.82;10.63;;;22.80;1.40;;;24.97;61.25;95869.37;641151;217;31758;-71
2021/07/21 08:54:47;;;;;;;12.65;11.32;;;23.20;1.40;;;25.27;60.74;95866.21;648233;212;31706;-71
2021/07/21 08:57:30;;;;;;;12.37;11.18;;;23.40;1.40;;;25.19;58.38;95868.78;650878;216;31685;-71
2021/07/21 09:00:14;;;;;;;12.52;10.88;;;23.30;1.40;;;25.17;61.30;95874.73;646127;213;31620;-71
2021/07/21 09:02:55;;;;;;;12.13;10.50;;;23.50;1.40;;;25.72;60.64;95865.53;647384;216;31589;-72
2021/07/21 09:05:36;;;;;;;12.57;11.38;;;23.80;1.40;;;25.94;56.90;95865.42;646030;212;31617;-71
2021/07/21 09:08:21;;;;;;;12.43;11.02;;;23.60;1.40;;;26.00;57.51;95865.61;646703;216;31609;-71
2021/07/21 09:11:02;;;;;;;12.23;10.10;;;24.00;1.40;;;26.27;59.46;95865.48;645586;216;42154;-70
2021/07/21 09:13:44;;;;;;;12.48;10.30;;;24.30;1.40;;;26.34;58.40;95867.29;647346;216;42219;-71
2021/07/21 09:16:26;;;;;;;12.18;10.60;;;24.40;1.40;;;25.69;54.92;95866.62;647197;212;31571;-71
2021/07/21 09:19:11;;;;;;;12.65;10.18;;;24.20;1.40;;;26.23;56.07;95866.95;646133;212;42457;-71
2021/07/21 09:21:49;;;;;;;12.25;10.35;;;24.60;1.40;;;26.86;56.76;95862.37;645813;216;31576;-72
2021/07/21 09:24:31;;;;;;;13.73;10.48;;;25.20;1.40;;;27.48;52.03;95863.67;646547;216;31546;-71
2021/07/21 09:27:12;;;;;;;11.98;9.40;;;25.40;1.40;;;27.89;51.80;95865.56;646964;216;32158;-71
2021/07/21 09:29:54;;;;;;;10.63;9.52;;;26.70;1.40;;;29.03;51.12;95870.58;644846;216;31583;-70
2021/07/21 09:32:50;;;;;;;12.40;9.93;;;27.70;1.40;;;30.52;47.29;95862.67;648133;216;31686;-72
2021/07/21 09:35:51;;;;;;;13.05;11.75;;;28.60;1.40;;;31.70;43.43;95858.99;646561;212;34743;-71
2021/07/21 09:38:33;;;;;;;23.62;21.77;;;29.00;1.40;;;32.50;44.32;95858.05;646128;216;35565;-71
2021/07/21 09:41:14;;;;;;;48.65;45.15;;;29.20;1.40;;;33.77;38.71;95863.05;634867;216;32671;-72
2021/07/21 09:44:01;;;;;;;54.78;50.95;;;29.10;1.40;;;32.82;41.35;95860.11;647482;216;31818;-72
2021/07/21 09:46:48;;;;;;;92.25;85.80;;;28.60;1.40;;;34.15;38.91;95862.78;630936;221;31948;-74
2021/07/21 09:49:36;;;;;;;108.00;99.82;;;29.50;1.40;;;34.75;40.00;95855.85;646075;216;31606;-72
2021/07/21 09:52:19;;;;;;;123.62;115.20;;;29.70;1.40;;;35.69;38.44;95857.04;646226;213;31747;-72
2021/07/21 09:55:08;;;;;;;152.75;141.23;;;29.80;1.40;;;34.67;34.98;95860.49;647682;212;31637;-72
2021/07/21 09:58:07;;;;;;;156.98;146.65;;;29.70;1.40;;;35.36;36.62;95861.83;645981;212;32221;-72
2021/07/21 10:00:49;;;;;;;196.30;180.45;;;29.80;1.40;;;34.27;34.75;95862.58;618805;226;32595;-73
2021/07/21 10:03:34;;;;;;;212.70;195.48;;;28.90;1.40;;;34.68;38.00;95852.20;617319;222;32011;-73
2021/07/21 10:06:13;;;;;;;190.73;176.43;;;29.20;1.40;;;35.99;34.74;95859.25;645870;216;31697;-72
2021/07/21 10:08:54;;;;;;;192.87;177.43;;;29.30;1.40;;;35.94;32.12;95858.77;645766;212;31575;-72
2021/07/21 10:11:39;;;;;;;212.25;196.15;;;29.60;1.40;;;35.54;34.31;95857.06;644212;213;31663;-72
2021/07/21 10:14:18;;;;;;;185.63;171.98;;;29.10;1.40;;;35.89;33.03;95855.36;645692;216;31984;-72
2021/07/21 10:17:02;;;;;;;181.40;167.27;;;29.50;1.40;;;35.82;36.24;95854.78;646434;216;31574;-72
2021/07/21 10:19:41;;;;;;;204.60;190.05;;;29.80;1.40;;;35.23;34.68;95851.77;645813;212;31638;-72
2021/07/21 10:22:23;;;;;;;191.98;177.93;;;29.10;1.40;;;35.90;35.49;95857.05;646818;216;31613;-71
2021/07/21 10:25:05;;;;;;;159.65;147.23;;;29.60;1.40;;;36.42;32.26;95851.64;645508;212;32223;-72
2021/07/21 10:27:47;;;;;;;187.68;174.27;;;29.80;1.40;;;36.62;30.65;95850.95;645270;216;32113;-72
2021/07/21 10:30:30;;;;;;;180.27;166.60;;;29.80;1.40;;;36.82;33.63;95846.84;646698;212;31729;-71
2021/07/21 10:35:52;;;;;;;180.23;166.80;;;29.80;1.40;;;37.29;33.65;95843.10;645920;216;32171;-72
2021/07/21 10:38:33;;;;;;;208.87;192.52;;;30.30;1.40;;;33.05;36.90;95851.66;646673;212;32002;-71
2021/07/21 10:41:17;;;;;;;172.43;159.90;;;28.40;1.40;;;35.48;34.23;95846.34;633637;212;31847;-72
2021/07/21 10:43:59;;;;;;;159.10;147.45;;;29.00;1.40;;;36.34;32.21;95840.08;645969;216;31744;-72
2021/07/21 10:46:42;;;;;;;182.13;168.33;;;29.50;1.40;;;36.63;30.28;95842.58;646360;212;31839;-72
2021/07/21 10:52:42;;;;;;;195.00;181.20;;;29.80;1.40;;;37.62;31.50;95840.38;644651;216;36927;-71
2021/07/21 10:55:46;;;;;;;144.10;133.20;;;29.80;1.40;;;38.11;30.89;95845.42;647178;212;31629;-72
2021/07/21 11:01:25;;;;;;;168.07;155.20;;;30.40;1.40;;;37.99;28.57;95842.07;646344;212;31900;-72
2021/07/21 11:04:07;;;;;;;183.98;170.68;;;30.20;1.40;;;37.02;29.14;95838.65;620574;225;31985;-73
2021/07/21 11:06:49;;;;;;;167.82;154.68;;;30.40;1.40;;;38.77;30.05;95839.77;648918;216;32760;-72
2021/07/21 11:09:34;;;;;;;191.60;177.30;;;30.70;1.40;;;37.69;31.52;95840.42;645010;212;42259;-73
2021/07/21 11:12:12;;;;;;;184.65;170.65;;;30.10;1.40;;;36.71;30.71;95837.97;648237;216;32036;-72
2021/07/21 11:14:56;;;;;;;161.53;149.00;;;29.10;1.40;;;36.39;30.94;95841.81;645113;216;31643;-72
2021/07/21 11:17:37;;;;;;;169.85;157.40;;;29.50;1.40;;;36.17;33.38;95838.69;617533;226;31917;-72
2021/07/21 11:20:18;;;;;;;147.77;136.53;;;29.70;1.40;;;37.89;29.96;95838.86;647218;216;42349;-72
2021/07/21 11:23:20;;;;;;;195.27;180.05;;;30.20;1.40;;;38.20;29.17;95842.42;649630;212;31703;-71
2021/07/21 11:26:20;;;;;;;139.65;128.35;;;30.50;1.40;;;37.98;27.88;95841.09;619788;226;32640;-71
2021/07/21 11:29:25;;;;;;;128.87;119.60;;;30.60;1.40;;;40.12;26.50;95835.34;648245;212;31615;-72
2021/07/21 11:32:06;;;;;;;171.25;158.77;;;30.90;1.40;;;38.39;28.05;95835.05;646507;216;32019;-72
2021/07/21 11:35:53;;;;;;;135.07;125.82;;;30.50;1.40;;;38.10;28.93;95843.61;646539;216;31800;-72
2021/07/21 11:38:51;;;;;;;156.25;144.82;;;30.30;1.40;;;39.07;29.11;95832.87;647805;212;42218;-72
2021/07/21 11:41:51;;;;;;;158.15;146.15;;;30.60;1.40;;;37.79;30.84;95835.88;646461;212;31590;-72
2021/07/21 11:44:34;;;;;;;162.75;150.15;;;30.60;1.40;;;39.00;28.37;95831.32;646212;212;42272;-72
2021/07/21 11:47:17;;;;;;;159.68;147.37;;;30.40;1.40;;;40.51;28.15;95821.95;649283;216;32037;-72
2021/07/21 11:49:57;;;;;;;132.07;122.37;;;31.00;1.40;;;40.83;26.81;95822.55;648044;216;42366;-73
2021/07/21 11:52:39;;;;;;;191.20;176.37;;;31.50;1.40;;;40.34;26.97;95824.63;645691;212;42276;-71
2021/07/21 11:55:22;;;;;;;188.23;174.05;;;31.00;1.40;;;39.60;27.76;95820.94;649131;212;31599;-72
2021/07/21 11:58:11;;;;;;;217.40;200.87;;;30.90;1.40;;;-143.44;100.00;122422.95;648577;216;42252;-72
2021/07/21 12:00:54;;;;;;;196.80;181.63;;;30.50;1.40;;;;;;644948;216;31783;-73